createdAt,value
2023-05-16T00:03:13.073Z,13.70
2023-05-16T00:13:48.840Z,13.60
2023-05-16T00:24:23.462Z,13.60
2023-05-16T00:34:58.184Z,13.60
2023-05-16T00:45:33.109Z,13.50
2023-05-16T00:56:33.872Z,13.50
2023-05-16T01:07:08.529Z,13.50
2023-05-16T01:18:01.008Z,13.50
2023-05-16T01:28:38.186Z,13.40
2023-05-16T01:39:40.743Z,13.50
2023-05-16T01:50:17.928Z,13.50
2023-05-16T02:01:00.354Z,13.40
2023-05-16T02:11:35.518Z,13.40
2023-05-16T02:22:10.304Z,13.50
2023-05-16T02:32:49.269Z,13.40
2023-05-16T02:43:25.180Z,13.30
2023-05-16T02:54:01.260Z,13.40
2023-05-16T03:04:35.785Z,13.20
2023-05-16T03:15:10.856Z,13.20
2023-05-16T03:25:46.490Z,13.20
2023-05-16T03:36:23.158Z,13.00
2023-05-16T03:46:57.868Z,13.10
2023-05-16T03:57:33.658Z,12.80
2023-05-16T04:08:08.476Z,12.60
2023-05-16T04:18:42.738Z,12.70
2023-05-16T04:29:17.848Z,12.60
2023-05-16T04:39:55.114Z,12.70
2023-05-16T04:50:30.002Z,12.80
2023-05-16T05:01:04.650Z,12.80
2023-05-16T05:11:39.157Z,13.00
2023-05-16T05:22:14.487Z,13.20
2023-05-16T05:32:49.199Z,13.20
2023-05-16T05:43:23.918Z,13.30
2023-05-16T05:53:59.120Z,13.30
2023-05-16T06:04:34.232Z,13.30
2023-05-16T06:15:10.273Z,13.30
2023-05-16T06:25:44.876Z,13.30
2023-05-16T06:36:19.665Z,13.30
2023-05-16T06:46:57.750Z,13.30
2023-05-16T06:57:32.187Z,13.30
2023-05-16T07:08:08.881Z,13.30
2023-05-16T07:18:44.107Z,13.20
2023-05-16T07:29:19.189Z,12.90
2023-05-16T07:39:54.436Z,12.80
2023-05-16T07:50:29.249Z,12.80
2023-05-16T08:01:04.432Z,12.90
2023-05-16T08:11:40.317Z,12.90
2023-05-16T08:22:15.011Z,13.10
2023-05-16T08:32:49.564Z,13.20
2023-05-16T08:43:24.789Z,13.20
2023-05-16T08:54:13.661Z,13.10
2023-05-16T09:04:49.718Z,12.80
2023-05-16T09:15:32.941Z,12.90
2023-05-16T09:26:08.320Z,13.40
2023-05-16T09:36:44.072Z,13.40
2023-05-16T09:47:20.744Z,13.60
2023-05-16T09:57:56.652Z,14.70
2023-05-16T10:08:36.469Z,15.10
2023-05-16T10:19:12.414Z,15.10
2023-05-16T10:40:29.369Z,15.30
2023-05-16T10:51:24.537Z,15.60
2023-05-16T11:01:59.002Z,15.20
2023-05-16T11:12:44.456Z,15.10
2023-05-16T11:23:23.648Z,14.80
2023-05-16T11:33:58.618Z,14.40
2023-05-16T11:44:33.467Z,14.60
2023-05-16T11:55:11.546Z,14.60
2023-05-16T12:05:53.737Z,15.10
2023-05-16T12:16:28.815Z,14.80
2023-05-16T12:27:03.898Z,14.90
2023-05-16T12:37:38.775Z,15.80
2023-05-16T12:48:14.573Z,16.00
2023-05-16T12:58:52.843Z,16.70
2023-05-16T13:09:32.039Z,17.10
2023-05-16T13:20:13.841Z,17.70
2023-05-16T13:30:48.723Z,18.70
2023-05-16T13:41:23.632Z,19.90
2023-05-16T13:51:58.869Z,20.70
2023-05-16T14:02:33.578Z,19.90
2023-05-16T14:13:08.599Z,20.00
2023-05-16T14:23:43.684Z,18.80
2023-05-16T14:34:18.442Z,18.80
2023-05-16T14:44:53.374Z,19.50
2023-05-16T14:55:28.383Z,18.70
2023-05-16T15:06:05.554Z,19.30
2023-05-16T15:16:40.080Z,19.40
2023-05-16T15:27:14.753Z,19.80
2023-05-16T15:37:49.334Z,19.90
2023-05-16T15:48:24.255Z,19.70
2023-05-16T15:58:59.135Z,18.80
2023-05-16T16:09:35.388Z,18.00
2023-05-16T16:20:10.721Z,18.10
2023-05-16T16:30:47.589Z,17.80
2023-05-16T16:41:22.754Z,17.20
2023-05-16T16:51:58.112Z,17.60
2023-05-16T17:02:33.005Z,17.50
2023-05-16T17:13:10.633Z,17.20
2023-05-16T17:23:45.400Z,16.50
2023-05-16T17:34:20.237Z,16.20
2023-05-16T17:44:54.998Z,16.10
2023-05-16T17:55:30.085Z,15.60
2023-05-16T18:06:05.556Z,15.30
2023-05-16T18:16:42.902Z,15.10
2023-05-16T18:27:17.999Z,15.10
2023-05-16T18:37:53.096Z,15.00
2023-05-16T18:48:27.633Z,14.70
2023-05-16T18:59:02.569Z,14.80
2023-05-16T19:09:37.412Z,14.50
2023-05-16T19:20:13.433Z,14.20
2023-05-16T19:30:48.149Z,13.90
2023-05-16T19:41:26.677Z,13.60
2023-05-16T19:52:03.059Z,13.50
2023-05-16T20:02:38.288Z,13.10
2023-05-16T20:13:15.324Z,12.90
2023-05-16T20:23:50.087Z,12.70
2023-05-16T20:34:24.800Z,12.50
2023-05-16T20:44:59.682Z,12.20
2023-05-16T20:55:34.682Z,12.00
2023-05-16T21:06:09.423Z,11.80
2023-05-16T21:16:44.009Z,11.60
2023-05-16T21:27:18.743Z,11.30
2023-05-16T21:37:53.632Z,11.20
2023-05-16T21:48:28.624Z,11.00
2023-05-16T21:59:03.275Z,10.80
2023-05-16T22:09:38.345Z,10.60
2023-05-16T22:20:12.977Z,10.60
2023-05-16T22:30:47.809Z,10.30
2023-05-16T22:41:22.556Z,10.30
2023-05-16T22:51:57.132Z,10.20
2023-05-16T23:02:32.001Z,10.10
2023-05-16T23:13:06.678Z,9.80
2023-05-16T23:23:41.489Z,9.80
2023-05-16T23:34:16.546Z,9.60
2023-05-16T23:44:51.627Z,9.60
2023-05-16T23:55:26.596Z,9.40
